createdAt,value
2019-05-22T00:05:26.176Z,15.30
2019-05-22T00:10:34.904Z,15.30
2019-05-22T00:15:40.060Z,15.30
2019-05-22T00:20:45.285Z,15.30
2019-05-22T00:25:49.854Z,15.10
2019-05-22T00:30:55.469Z,15.10
2019-05-22T00:36:02.125Z,15.10
2019-05-22T00:41:07.793Z,15.00
2019-05-22T00:46:16.962Z,15.00
2019-05-22T00:51:45.620Z,15.00
2019-05-22T00:57:15.695Z,15.00
2019-05-22T01:02:26.822Z,14.90
2019-05-22T01:07:40.151Z,14.80
2019-05-22T01:12:47.563Z,14.90
2019-05-22T01:17:54.320Z,14.80
2019-05-22T01:23:02.731Z,14.80
2019-05-22T01:28:07.119Z,14.80
2019-05-22T01:33:16.499Z,14.70
2019-05-22T01:38:23.024Z,14.60
2019-05-22T01:43:29.802Z,14.60
2019-05-22T01:48:37.443Z,14.60
2019-05-22T01:53:43.701Z,14.70
2019-05-22T01:58:49.876Z,14.70
2019-05-22T02:03:58.265Z,14.70
2019-05-22T02:09:23.816Z,14.80
2019-05-22T02:14:30.325Z,14.80
2019-05-22T02:19:35.417Z,14.70
2019-05-22T02:24:40.451Z,14.60
2019-05-22T02:29:47.564Z,14.60
2019-05-22T02:34:52.195Z,14.60
2019-05-22T02:39:57.401Z,14.50
2019-05-22T02:45:03.694Z,14.50
2019-05-22T02:50:08.877Z,14.60
2019-05-22T02:55:13.976Z,14.50
2019-05-22T03:00:20.311Z,14.50
2019-05-22T03:05:25.277Z,14.50
2019-05-22T03:10:31.125Z,14.40
2019-05-22T03:15:35.569Z,14.40
2019-05-22T03:20:41.744Z,14.40
2019-05-22T03:25:46.457Z,14.30
2019-05-22T03:30:53.046Z,14.10
2019-05-22T03:36:10.658Z,14.10
2019-05-22T03:41:15.460Z,14.00
2019-05-22T03:46:34.215Z,14.20
2019-05-22T03:51:38.944Z,14.20
2019-05-22T03:56:43.822Z,14.30
2019-05-22T04:01:49.001Z,14.30
2019-05-22T04:06:54.395Z,14.30
2019-05-22T04:11:58.999Z,14.20
2019-05-22T04:17:03.924Z,14.20
2019-05-22T04:22:09.792Z,14.20
2019-05-22T04:27:16.072Z,14.20
2019-05-22T04:32:30.618Z,14.20
2019-05-22T04:37:35.704Z,14.20
2019-05-22T04:42:40.908Z,14.20
2019-05-22T04:47:56.621Z,14.20
2019-05-22T04:53:02.005Z,14.10
2019-05-22T04:58:08.374Z,14.00
2019-05-22T05:03:12.957Z,14.00
2019-05-22T05:08:18.028Z,13.90
2019-05-22T05:13:27.134Z,13.90
2019-05-22T05:18:31.578Z,14.10
2019-05-22T05:23:35.896Z,14.00
2019-05-22T05:28:40.455Z,14.00
2019-05-22T05:33:55.411Z,14.10
2019-05-22T05:39:00.081Z,14.10
2019-05-22T05:44:05.629Z,14.10
2019-05-22T05:49:09.979Z,14.10
2019-05-22T05:54:15.446Z,14.10
2019-05-22T05:59:21.811Z,14.10
2019-05-22T06:04:35.173Z,14.00
2019-05-22T06:09:39.246Z,14.00
2019-05-22T06:14:43.583Z,13.90
2019-05-22T06:19:50.814Z,13.90
2019-05-22T06:25:02.327Z,14.00
2019-05-22T06:30:13.328Z,14.00
2019-05-22T06:35:21.877Z,14.10
2019-05-22T06:40:28.157Z,14.10
2019-05-22T06:45:35.532Z,14.00
2019-05-22T06:50:38.759Z,14.00
2019-05-22T06:55:43.139Z,14.10
2019-05-22T07:00:47.941Z,14.20
2019-05-22T07:05:53.241Z,14.30
2019-05-22T07:10:57.862Z,14.20
2019-05-22T07:16:03.719Z,14.20
2019-05-22T07:21:08.515Z,14.10
2019-05-22T07:26:12.803Z,14.00
2019-05-22T07:31:17.387Z,14.00
2019-05-22T07:36:24.696Z,13.90
2019-05-22T07:41:29.168Z,13.80
2019-05-22T07:46:33.679Z,13.90
2019-05-22T07:51:53.372Z,14.00
2019-05-22T07:56:45.986Z,14.10
2019-05-22T08:01:50.900Z,14.30
2019-05-22T08:06:55.562Z,14.50
2019-05-22T08:12:00.175Z,14.60
2019-05-22T08:17:06.111Z,14.50
2019-05-22T08:22:10.405Z,14.50
2019-05-22T08:27:16.429Z,14.50
2019-05-22T08:32:22.678Z,14.60
2019-05-22T08:37:31.372Z,14.70
2019-05-22T08:42:35.912Z,14.60
2019-05-22T08:47:40.335Z,14.80
2019-05-22T08:52:45.548Z,15.00
2019-05-22T08:57:51.911Z,14.90
2019-05-22T09:02:56.776Z,14.90
2019-05-22T09:08:01.142Z,15.00
2019-05-22T09:13:05.952Z,14.90
2019-05-22T09:18:11.354Z,14.90
2019-05-22T09:23:16.459Z,14.90
2019-05-22T09:28:21.259Z,14.80
2019-05-22T09:33:25.666Z,14.70
2019-05-22T09:38:30.430Z,14.80
2019-05-22T09:43:34.833Z,14.80
2019-05-22T09:48:39.803Z,14.80
2019-05-22T09:53:44.629Z,14.90
2019-05-22T09:58:49.357Z,15.00
2019-05-22T10:03:54.003Z,15.10
2019-05-22T10:08:58.828Z,15.20
2019-05-22T10:14:05.207Z,15.40
2019-05-22T10:19:09.667Z,15.70
2019-05-22T10:24:14.975Z,16.00
2019-05-22T10:29:19.821Z,16.20
2019-05-22T10:34:24.728Z,16.40
2019-05-22T10:39:30.751Z,16.80
2019-05-22T10:44:35.113Z,17.00
2019-05-22T10:49:39.490Z,17.20
2019-05-22T10:54:44.044Z,17.30
2019-05-22T10:59:49.871Z,17.30
2019-05-22T11:04:54.689Z,17.20
2019-05-22T11:09:59.160Z,17.40
2019-05-22T11:15:04.477Z,17.80
2019-05-22T11:20:11.185Z,18.20
2019-05-22T11:25:17.621Z,18.60
2019-05-22T11:30:22.562Z,18.80
2019-05-22T11:35:28.823Z,18.90
2019-05-22T11:40:33.872Z,18.90
2019-05-22T11:45:38.539Z,19.30
2019-05-22T11:50:44.040Z,19.50
2019-05-22T11:55:48.763Z,19.90
2019-05-22T12:00:53.269Z,20.40
2019-05-22T12:05:58.100Z,20.70
2019-05-22T12:11:02.860Z,20.80
2019-05-22T12:16:08.591Z,20.90
2019-05-22T12:21:12.979Z,20.90
2019-05-22T12:26:17.518Z,20.90
2019-05-22T12:31:22.758Z,20.90
2019-05-22T12:36:29.446Z,21.00
2019-05-22T12:41:34.601Z,21.40
2019-05-22T12:46:39.957Z,21.80
2019-05-22T12:51:46.256Z,22.00
2019-05-22T12:56:51.534Z,22.00
2019-05-22T13:01:58.179Z,21.90
2019-05-22T13:07:04.695Z,21.90
2019-05-22T13:12:12.765Z,22.20
2019-05-22T13:17:17.214Z,22.40
2019-05-22T13:22:26.311Z,22.50
2019-05-22T13:27:32.308Z,22.70
2019-05-22T13:32:36.691Z,22.60
2019-05-22T13:37:41.662Z,22.50
2019-05-22T13:42:46.271Z,22.10
2019-05-22T13:47:50.576Z,21.70
2019-05-22T13:52:56.389Z,21.70
2019-05-22T13:58:01.999Z,21.90
2019-05-22T14:03:07.077Z,22.00
2019-05-22T14:08:12.126Z,22.10
2019-05-22T14:13:22.019Z,22.10
2019-05-22T14:18:26.646Z,22.10
2019-05-22T14:23:33.049Z,22.00
2019-05-22T14:28:37.852Z,22.30
2019-05-22T14:33:42.187Z,22.40
2019-05-22T14:38:46.961Z,22.20
2019-05-22T14:43:51.357Z,21.90
2019-05-22T14:48:55.762Z,21.80
2019-05-22T14:54:03.644Z,21.60
2019-05-22T14:59:08.153Z,21.50
2019-05-22T15:04:14.070Z,21.20
2019-05-22T15:09:18.635Z,20.90
2019-05-22T15:14:23.044Z,21.20
2019-05-22T15:19:27.398Z,21.70
2019-05-22T15:24:32.140Z,21.70
2019-05-22T15:29:36.517Z,21.60
2019-05-22T15:34:41.846Z,21.60
2019-05-22T15:39:47.062Z,21.60
2019-05-22T15:44:51.549Z,21.50
2019-05-22T15:49:56.701Z,21.50
2019-05-22T15:55:02.752Z,21.50
2019-05-22T16:00:10.648Z,21.60
2019-05-22T16:05:18.265Z,21.80
2019-05-22T16:10:25.499Z,22.00
2019-05-22T16:15:33.624Z,22.30
2019-05-22T16:20:40.133Z,22.40
2019-05-22T16:25:45.315Z,22.30
2019-05-22T16:30:50.057Z,22.30
2019-05-22T16:35:54.708Z,22.30
2019-05-22T16:40:59.899Z,22.40
2019-05-22T16:46:04.999Z,22.50
2019-05-22T16:51:11.820Z,22.50
2019-05-22T16:56:17.300Z,22.40
2019-05-22T17:01:23.800Z,22.00
2019-05-22T17:06:28.255Z,21.60
2019-05-22T17:11:32.860Z,21.50
2019-05-22T17:16:41.263Z,21.40
2019-05-22T17:21:47.043Z,21.20
2019-05-22T17:26:53.613Z,21.10
2019-05-22T17:31:58.201Z,21.10
2019-05-22T17:37:08.187Z,21.20
2019-05-22T17:42:16.232Z,21.30
2019-05-22T17:47:23.952Z,21.30
2019-05-22T17:52:32.657Z,21.30
2019-05-22T17:57:39.562Z,21.30
2019-05-22T18:02:47.126Z,21.30
2019-05-22T18:07:51.797Z,21.20
2019-05-22T18:12:57.320Z,21.10
2019-05-22T18:18:02.032Z,21.10
2019-05-22T18:23:06.709Z,21.00
2019-05-22T18:28:12.439Z,21.00
2019-05-22T18:33:17.171Z,20.90
2019-05-22T18:38:21.711Z,20.90
2019-05-22T18:43:28.609Z,20.80
2019-05-22T18:48:33.282Z,20.70
2019-05-22T18:53:37.901Z,20.70
2019-05-22T18:58:43.143Z,20.60
2019-05-22T19:03:47.558Z,20.50
2019-05-22T19:08:52.423Z,20.40
2019-05-22T19:13:56.982Z,20.30
2019-05-22T19:19:01.738Z,20.20
2019-05-22T19:24:06.196Z,20.00
2019-05-22T19:29:10.928Z,19.90
2019-05-22T19:34:15.283Z,19.90
2019-05-22T19:39:20.070Z,19.80
2019-05-22T19:44:24.474Z,19.70
2019-05-22T19:49:29.490Z,19.60
2019-05-22T19:54:41.364Z,19.50
2019-05-22T19:59:45.718Z,19.50
2019-05-22T20:04:51.065Z,19.40
2019-05-22T20:09:55.261Z,19.30
2019-05-22T20:14:59.580Z,19.20
2019-05-22T20:20:05.968Z,19.10
2019-05-22T20:25:11.178Z,19.10
2019-05-22T20:30:18.031Z,19.10
2019-05-22T20:35:22.391Z,18.90
2019-05-22T20:40:27.633Z,18.80
2019-05-22T20:45:33.316Z,18.80
2019-05-22T20:50:38.069Z,18.70
2019-05-22T20:55:44.692Z,18.70
2019-05-22T21:00:51.455Z,18.60
2019-05-22T21:05:56.722Z,18.50
2019-05-22T21:11:02.925Z,18.40
2019-05-22T21:16:09.413Z,18.30
2019-05-22T21:21:15.305Z,18.30
2019-05-22T21:26:20.664Z,18.20
2019-05-22T21:31:25.643Z,18.00
2019-05-22T21:36:32.035Z,17.90
2019-05-22T21:41:36.569Z,17.80
2019-05-22T21:46:41.430Z,17.80
2019-05-22T21:51:45.716Z,17.80
2019-05-22T21:56:50.979Z,17.70
2019-05-22T22:02:09.357Z,17.60
2019-05-22T22:07:13.856Z,17.50
2019-05-22T22:12:22.364Z,17.40
2019-05-22T22:17:28.250Z,17.40
2019-05-22T22:22:32.871Z,17.40
2019-05-22T22:27:38.612Z,17.30
2019-05-22T22:32:43.352Z,17.20
2019-05-22T22:37:47.979Z,17.00
2019-05-22T22:42:54.046Z,17.00
2019-05-22T22:48:00.287Z,17.00
2019-05-22T22:53:08.028Z,17.00
2019-05-22T23:03:24.639Z,16.90
2019-05-22T23:08:32.017Z,16.80
2019-05-22T23:13:37.299Z,16.80
2019-05-22T23:19:25.606Z,16.60
2019-05-22T23:24:35.320Z,16.50
2019-05-22T23:29:40.585Z,16.30
2019-05-22T23:34:47.386Z,16.30
2019-05-22T23:39:56.987Z,16.00
2019-05-22T23:45:04.882Z,15.80
2019-05-22T23:50:10.516Z,15.80
2019-05-22T23:55:16.031Z,15.60
